Time;durP1;ratioP1;P1;durP2;ratioP2;P2;SDS_P1;SDS_P2;PMS_P1;PMS_P2;Temp;Humidity;BMP_temperature;BMP_pressure;BME280_temperature;BME280_humidity;BME280_pressure;Samples;Min_cycle;Max_cycle;Signal;HPM_P1;HPM_P2
2022/05/25 00:00:10;;;;;;;6.50;4.00;;;;;;;10.67;86.90;101138.50;5068732;28;20070;-68
2022/05/25 00:02:36;;;;;;;7.80;4.32;;;;;;;10.63;86.94;101146.03;5068131;28;20029;-67
2022/05/25 00:05:02;;;;;;;6.82;4.38;;;;;;;10.57;87.26;101141.47;5049149;28;20028;-67
2022/05/25 00:07:27;;;;;;;7.43;4.40;;;;;;;10.57;87.38;101145.97;5049673;28;20079;-68
2022/05/25 00:09:53;;;;;;;7.55;4.60;;;;;;;10.57;87.09;101143.31;5049565;28;20060;-67
2022/05/25 00:12:20;;;;;;;8.27;4.25;;;;;;;10.57;87.44;101151.31;5049350;28;20057;-67
2022/05/25 00:14:45;;;;;;;8.73;4.88;;;;;;;10.58;87.41;101147.63;5049352;28;20036;-67
2022/05/25 00:17:11;;;;;;;10.40;4.82;;;;;;;10.57;87.62;101151.31;5049488;28;20032;-67
2022/05/25 00:22:20;;;;;;;10.45;4.60;;;;;;;10.53;87.93;101159.69;5049836;28;20060;-67
2022/05/25 00:24:45;;;;;;;7.72;4.70;;;;;;;10.52;88.12;101160.69;5049392;28;20477;-67
2022/05/25 00:27:10;;;;;;;8.13;5.28;;;;;;;10.53;87.97;101162.34;5049422;28;20072;-67
2022/05/25 00:29:39;;;;;;;9.30;5.15;;;;;;;10.51;88.00;101158.22;5049502;28;20025;-67
2022/05/25 00:32:05;;;;;;;5.60;4.10;;;;;;;10.47;88.45;101163.09;5049286;28;20102;-67
2022/05/25 00:34:31;;;;;;;10.57;5.13;;;;;;;10.43;88.53;101163.69;5049223;28;20078;-67
2022/05/25 00:36:56;;;;;;;8.25;5.78;;;;;;;10.37;88.52;101162.56;5049370;28;20032;-67
2022/05/25 00:39:23;;;;;;;9.02;5.15;;;;;;;10.38;88.83;101163.41;5049364;28;20033;-68
2022/05/25 00:41:50;;;;;;;7.90;4.90;;;;;;;10.40;88.66;101162.22;5049343;28;20025;-68
2022/05/25 00:44:15;;;;;;;7.30;4.82;;;;;;;10.41;88.72;101161.19;5049361;28;20029;-67
2022/05/25 00:46:41;;;;;;;10.38;4.82;;;;;;;10.40;88.86;101159.53;5049449;28;20385;-67
2022/05/25 00:49:18;;;;;;;10.60;5.65;;;;;;;10.38;89.47;101160.75;5031401;28;20052;-67
2022/05/25 00:51:52;;;;;;;12.80;6.65;;;;;;;10.34;89.39;101159.47;5065947;28;20021;-68
2022/05/25 00:54:23;;;;;;;7.75;4.88;;;;;;;10.35;89.65;101161.09;5068122;28;20036;-67
2022/05/25 00:56:51;;;;;;;10.23;5.95;;;;;;;10.33;89.69;101169.31;5068409;28;20377;-68
2022/05/25 00:59:20;;;;;;;10.40;5.05;;;;;;;10.30;90.32;101153.69;5068314;28;20066;-68
2022/05/25 01:01:46;;;;;;;8.82;4.70;;;;;;;10.32;89.83;101164.97;5068262;28;20025;-67
2022/05/25 01:04:13;;;;;;;10.32;6.43;;;;;;;10.29;89.91;101171.50;5068252;28;20443;-68
2022/05/25 01:06:44;;;;;;;9.05;5.40;;;;;;;10.29;90.11;101168.81;5068188;28;20025;-68
2022/05/25 01:09:42;;;;;;;11.23;5.80;;;;;;;10.25;89.84;101175.53;5068266;28;20109;-67
2022/05/25 01:12:16;;;;;;;7.88;5.35;;;;;;;10.23;90.26;101174.06;5050096;28;20471;-67
2022/05/25 01:14:55;;;;;;;11.25;5.68;;;;;;;10.21;90.33;101174.25;5068016;28;20045;-67
2022/05/25 01:17:25;;;;;;;9.63;5.72;;;;;;;10.20;90.26;101182.44;5070245;28;20028;-68
2022/05/25 01:20:28;;;;;;;11.27;6.47;;;;;;;10.17;90.64;101178.31;5055553;28;20033;-68
2022/05/25 01:23:13;;;;;;;12.10;5.75;;;;;;;10.14;90.62;101176.03;5022462;28;20052;-68
2022/05/25 01:25:48;;;;;;;9.02;5.57;;;;;;;10.14;90.69;101183.16;5052418;28;20021;-67
2022/05/25 01:28:32;;;;;;;6.95;4.45;;;;;;;10.07;91.05;101173.25;5052450;28;20909;-68
2022/05/25 01:30:58;;;;;;;7.95;5.22;;;;;;;10.09;90.79;101181.06;5052267;28;20514;-67
2022/05/25 01:33:32;;;;;;;12.68;6.13;;;;;;;10.06;91.21;101181.41;5052210;28;20029;-67
2022/05/25 01:36:29;;;;;;;11.30;5.65;;;;;;;10.04;91.55;101184.28;5052213;28;20078;-68
2022/05/25 01:39:03;;;;;;;10.05;5.95;;;;;;;10.02;91.66;101178.31;5034669;28;20045;-67
2022/05/25 01:41:54;;;;;;;12.55;7.05;;;;;;;10.01;91.82;101182.00;5052190;28;20530;-67
2022/05/25 01:44:25;;;;;;;13.70;7.50;;;;;;;10.00;91.71;101179.50;5051340;28;20053;-67
2022/05/25 01:46:56;;;;;;;12.15;6.95;;;;;;;9.98;91.91;101190.38;5051981;28;20504;-67
2022/05/25 01:49:55;;;;;;;13.30;7.00;;;;;;;10.00;92.23;101187.50;5051875;28;20140;-67
2022/05/25 01:52:29;;;;;;;12.77;6.88;;;;;;;9.98;92.37;101182.38;5051501;28;20036;-67
2022/05/25 01:55:01;;;;;;;12.25;7.40;;;;;;;9.94;92.50;101180.25;5051608;28;20530;-67
2022/05/25 01:57:31;;;;;;;12.40;6.15;;;;;;;9.95;92.49;101198.69;5051793;28;20472;-68
2022/05/25 01:59:56;;;;;;;11.23;6.88;;;;;;;9.96;92.30;101194.22;5051658;28;20349;-68
2022/05/25 02:05:15;;;;;;;12.32;7.30;;;;;;;9.92;92.72;101188.41;5052040;28;20114;-68
2022/05/25 02:07:59;;;;;;;11.07;6.47;;;;;;;9.92;92.69;101188.41;5051449;28;20102;-67
2022/05/25 02:10:30;;;;;;;12.23;7.57;;;;;;;9.90;92.86;101192.28;5051246;28;20029;-67
2022/05/25 02:13:20;;;;;;;13.77;7.28;;;;;;;9.87;92.88;101188.97;5051408;28;20087;-68
2022/05/25 02:16:24;;;;;;;12.70;6.80;;;;;;;9.86;92.56;101197.97;5051428;28;20097;-67
2022/05/25 02:19:16;;;;;;;15.15;7.57;;;;;;;9.85;92.83;101192.81;4970462;28;20034;-68
2022/05/25 02:21:51;;;;;;;11.98;6.85;;;;;;;9.77;92.87;101185.78;5008501;28;20072;-67
2022/05/25 02:24:38;;;;;;;14.40;7.60;;;;;;;9.81;93.28;101197.69;5051423;28;20881;-68
2022/05/25 02:27:09;;;;;;;14.25;6.90;;;;;;;9.80;92.95;101197.91;5050862;28;20060;-68
2022/05/25 02:29:43;;;;;;;13.88;8.63;;;;;;;9.79;93.15;101197.03;5050724;28;20033;-67
2022/05/25 02:32:20;;;;;;;11.63;6.97;;;;;;;9.76;93.07;101197.41;5051014;28;20024;-68
2022/05/25 02:34:51;;;;;;;12.73;6.97;;;;;;;9.65;93.18;101192.53;5051186;28;20025;-67
2022/05/25 02:37:22;;;;;;;12.82;7.00;;;;;;;9.68;93.09;101202.84;5051062;28;20021;-67
2022/05/25 02:39:51;;;;;;;15.57;8.00;;;;;;;9.70;93.14;101208.81;5050986;28;20043;-67
2022/05/25 02:42:17;;;;;;;16.10;7.40;;;;;;;9.68;93.17;101207.34;5050956;28;20059;-68
2022/05/25 02:44:43;;;;;;;11.18;6.40;;;;;;;9.69;93.12;101208.97;5050689;28;20072;-68
2022/05/25 02:47:09;;;;;;;14.82;8.02;;;;;;;9.66;93.24;101213.66;5050949;28;20021;-67
2022/05/25 02:49:35;;;;;;;13.23;7.30;;;;;;;9.65;93.33;101217.34;5050481;28;20061;-67
2022/05/25 02:52:01;;;;;;;12.90;6.97;;;;;;;9.65;93.25;101222.66;5050698;28;20060;-67
2022/05/25 02:54:26;;;;;;;14.20;8.95;;;;;;;9.62;93.51;101214.22;5032516;28;20075;-67
2022/05/25 02:56:52;;;;;;;15.45;7.45;;;;;;;9.63;93.61;101216.69;5050064;28;20025;-68
2022/05/25 02:59:17;;;;;;;11.82;6.68;;;;;;;9.63;93.82;101226.50;5050082;28;20033;-67
2022/05/25 03:01:42;;;;;;;12.88;7.75;;;;;;;9.62;93.58;101224.88;5050609;28;20464;-67
2022/05/25 03:04:08;;;;;;;14.13;7.18;;;;;;;9.60;93.38;101221.56;5032739;28;20029;-67
2022/05/25 03:06:34;;;;;;;15.60;7.40;;;;;;;9.58;93.66;101221.72;5050578;28;20750;-67
2022/05/25 03:08:59;;;;;;;12.57;7.20;;;;;;;9.58;93.72;101226.22;5050339;28;20043;-67
2022/05/25 03:11:24;;;;;;;14.13;7.43;;;;;;;9.57;93.71;101224.59;5051718;28;20522;-70
2022/05/25 03:13:50;;;;;;;14.88;7.80;;;;;;;9.55;93.75;101229.25;5060528;28;20036;-71
2022/05/25 03:16:18;;;;;;;11.65;7.25;;;;;;;9.57;93.81;101236.06;5059825;28;20063;-70
2022/05/25 03:18:44;;;;;;;12.85;7.15;;;;;;;9.56;93.75;101236.22;5058345;28;20025;-70
2022/05/25 03:21:10;;;;;;;16.40;7.82;;;;;;;9.54;93.51;101241.75;5059638;28;20086;-70
2022/05/25 03:23:36;;;;;;;11.40;6.78;;;;;;;9.52;93.56;101245.59;5043169;28;20383;-70
2022/05/25 03:26:02;;;;;;;13.25;6.78;;;;;;;9.51;93.62;101243.94;5062459;28;20028;-70
2022/05/25 03:28:27;;;;;;;12.40;8.30;;;;;;;9.43;93.81;101224.38;5057381;28;20036;-70
2022/05/25 03:30:54;;;;;;;13.77;6.72;;;;;;;9.52;93.65;101245.59;5060190;28;20384;-70
2022/05/25 03:33:19;;;;;;;13.13;6.82;;;;;;;9.49;93.28;101236.13;5060780;28;20032;-70
2022/05/25 03:35:45;;;;;;;11.60;6.93;;;;;;;9.48;93.21;101237.13;5061781;28;20029;-70
2022/05/25 03:38:10;;;;;;;12.48;6.40;;;;;;;9.48;93.44;101246.94;5059045;28;20032;-70
2022/05/25 03:40:37;;;;;;;11.43;6.40;;;;;;;9.46;93.77;101248.97;5060364;28;20487;-70
2022/05/25 03:43:05;;;;;;;11.23;7.28;;;;;;;9.47;93.93;101246.13;5060461;28;20029;-70
2022/05/25 03:45:30;;;;;;;11.88;6.53;;;;;;;9.46;93.44;101249.81;5056004;28;20021;-70
2022/05/25 03:47:55;;;;;;;11.25;5.65;;;;;;;9.44;93.59;101251.81;5061432;28;20094;-70
2022/05/25 03:50:21;;;;;;;11.30;5.85;;;;;;;9.46;93.54;101259.59;5044524;28;20060;-70
2022/05/25 03:52:46;;;;;;;10.98;6.57;;;;;;;9.44;93.63;101257.16;5062382;28;20032;-70
2022/05/25 03:55:12;;;;;;;11.63;5.63;;;;;;;9.46;93.64;101268.44;5058637;28;20447;-70
2022/05/25 03:57:38;;;;;;;11.48;6.22;;;;;;;9.44;93.44;101263.28;5061950;28;20043;-70
2022/05/25 04:00:05;;;;;;;10.10;5.95;;;;;;;9.47;93.40;101264.78;5060269;28;20023;-70
2022/05/25 04:02:30;;;;;;;11.15;6.07;;;;;;;9.49;92.97;101264.59;5061274;28;20546;-70
2022/05/25 04:05:08;;;;;;;14.05;6.57;;;;;;;9.51;92.99;101270.56;5060216;28;20028;-70
2022/05/25 04:07:35;;;;;;;13.88;6.95;;;;;;;9.53;92.63;101284.53;5057810;28;20669;-70
2022/05/25 04:10:01;;;;;;;11.40;6.32;;;;;;;9.52;92.69;101270.38;5057571;28;20036;-70
2022/05/25 04:12:27;;;;;;;9.20;5.32;;;;;;;9.58;92.55;101268.84;5042803;28;20036;-70
2022/05/25 04:14:52;;;;;;;12.40;6.93;;;;;;;9.61;92.44;101271.13;5057489;28;20734;-70
2022/05/25 04:17:19;;;;;;;12.48;5.93;;;;;;;9.62;92.24;101278.13;5057047;28;20081;-70
2022/05/25 04:19:44;;;;;;;11.90;6.65;;;;;;;9.59;92.31;101268.66;5057402;28;20085;-70
2022/05/25 04:22:10;;;;;;;11.15;5.20;;;;;;;9.63;92.29;101277.13;5055519;28;20036;-70
2022/05/25 04:24:35;;;;;;;8.43;5.18;;;;;;;9.64;92.66;101284.09;5060088;28;20037;-70
2022/05/25 04:27:00;;;;;;;8.85;4.50;;;;;;;9.65;92.66;101267.94;5063206;28;20117;-70
2022/05/25 04:29:25;;;;;;;8.35;5.22;;;;;;;9.70;92.62;101285.22;5058636;28;20029;-70
2022/05/25 04:31:51;;;;;;;9.15;4.80;;;;;;;9.74;92.64;101279.34;5061052;28;20111;-70
2022/05/25 04:34:16;;;;;;;9.80;5.03;;;;;;;9.78;92.86;101279.81;5059039;28;20037;-70
2022/05/25 04:36:42;;;;;;;7.07;4.63;;;;;;;9.82;92.65;101281.09;5053417;28;20033;-70
2022/05/25 04:39:07;;;;;;;8.02;4.40;;;;;;;9.88;92.64;101281.22;5060108;28;20044;-70
2022/05/25 04:41:35;;;;;;;9.07;4.18;;;;;;;9.98;92.49;101285.44;5058567;28;20077;-71
2022/05/25 04:44:01;;;;;;;10.27;4.57;;;;;;;10.00;92.34;101276.25;5056670;28;20040;-71
2022/05/25 04:46:28;;;;;;;9.48;4.68;;;;;;;10.09;91.96;101285.00;5057903;28;20028;-71
2022/05/25 04:48:53;;;;;;;7.15;4.68;;;;;;;10.14;92.23;101290.63;5059512;28;20056;-70
2022/05/25 04:51:18;;;;;;;17.80;5.63;;;;;;;10.22;91.85;101301.19;5062278;28;20488;-70
2022/05/25 04:53:44;;;;;;;9.30;5.25;;;;;;;10.27;91.54;101293.50;5061966;28;20024;-70
2022/05/25 04:58:53;;;;;;;8.55;5.03;;;;;;;10.44;91.81;101294.13;5062759;28;20099;-70
2022/05/25 05:01:19;;;;;;;18.48;5.60;;;;;;;10.53;91.50;101300.19;5062364;28;20021;-70
2022/05/25 05:03:45;;;;;;;10.13;4.53;;;;;;;10.62;91.39;101299.09;5062316;28;20052;-70
2022/05/25 05:06:11;;;;;;;11.32;4.30;;;;;;;10.70;90.74;101295.50;5058782;28;20141;-70
2022/05/25 05:08:37;;;;;;;8.55;4.45;;;;;;;10.75;90.10;101299.25;5063473;28;20904;-70
2022/05/25 05:11:17;;;;;;;8.50;4.72;;;;;;;10.87;90.20;101312.09;5045103;28;20036;-70
2022/05/25 05:13:42;;;;;;;9.68;4.32;;;;;;;10.96;90.16;101308.31;5062322;28;20032;-70
2022/05/25 05:16:14;;;;;;;14.95;4.88;;;;;;;11.00;89.21;101311.44;5061583;28;20545;-70
2022/05/25 05:18:42;;;;;;;9.25;4.50;;;;;;;11.04;89.21;101307.38;5061950;28;20509;-70
2022/05/25 05:21:09;;;;;;;12.70;5.30;;;;;;;11.06;89.35;101311.53;5062095;28;20074;-70
2022/05/25 05:23:37;;;;;;;12.27;5.85;;;;;;;11.10;89.64;101301.28;5060611;28;20082;-70
2022/05/25 05:26:03;;;;;;;10.43;4.30;;;;;;;11.14;88.91;101300.72;5061921;28;20571;-70
2022/05/25 05:28:32;;;;;;;6.65;3.97;;;;;;;11.24;89.12;101302.25;5063788;28;20071;-70
2022/05/25 05:31:00;;;;;;;7.97;4.40;;;;;;;11.26;88.80;101292.22;5063448;28;20024;-70
2022/05/25 05:33:26;;;;;;;8.35;4.15;;;;;;;11.28;88.69;101301.69;5060563;28;20380;-70
2022/05/25 05:35:59;;;;;;;10.88;5.10;;;;;;;11.31;88.38;101300.47;5063327;28;20040;-70
2022/05/25 05:38:25;;;;;;;11.10;5.15;;;;;;;11.29;88.50;101284.66;5064678;28;20116;-70
2022/05/25 05:40:52;;;;;;;7.13;4.70;;;;;;;11.37;88.44;101292.53;5062558;28;20599;-71
2022/05/25 05:43:17;;;;;;;15.80;5.55;;;;;;;11.54;87.65;101292.28;5060140;28;20037;-70
2022/05/25 05:45:44;;;;;;;13.32;5.47;;;;;;;11.67;87.37;101296.91;5062052;28;20024;-70
2022/05/25 05:48:20;;;;;;;9.07;4.20;;;;;;;11.65;87.31;101293.59;5059189;28;20028;-70
2022/05/25 05:50:49;;;;;;;13.05;5.07;;;;;;;11.65;87.42;101289.06;5061715;28;20392;-70
2022/05/25 05:53:15;;;;;;;10.65;4.57;;;;;;;11.70;87.29;101294.66;5062311;28;20103;-70
2022/05/25 05:55:43;;;;;;;8.90;4.90;;;;;;;11.73;87.53;101288.94;5059856;28;20044;-71
2022/05/25 05:58:08;;;;;;;10.00;5.25;;;;;;;11.74;87.28;101290.59;5060457;28;20102;-70
2022/05/25 06:00:34;;;;;;;7.70;4.05;;;;;;;11.71;87.75;101279.44;5062066;28;20131;-71
2022/05/25 06:02:59;;;;;;;12.02;4.63;;;;;;;11.75;89.02;101284.22;5059835;28;20033;-71
2022/05/25 06:05:25;;;;;;;11.20;5.80;;;;;;;11.77;87.76;101297.41;5059102;28;20036;-71
2022/05/25 06:07:50;;;;;;;10.23;4.78;;;;;;;11.80;87.40;101294.34;5062362;28;20063;-70
2022/05/25 06:10:16;;;;;;;8.88;4.53;;;;;;;11.80;88.01;101286.31;5055116;28;20447;-71
2022/05/25 06:12:41;;;;;;;10.85;5.05;;;;;;;11.87;87.28;101305.09;5058009;28;20112;-71
2022/05/25 06:20:36;;;;;;;9.77;5.18;;;;;;;11.96;87.54;101311.97;5061109;28;20067;-70
2022/05/25 06:23:02;;;;;;;10.43;5.53;;;;;;;12.01;87.40;101315.72;5061488;28;20045;-70
2022/05/25 06:25:28;;;;;;;11.43;5.22;;;;;;;12.07;87.51;101320.25;5060798;28;20032;-68
2022/05/25 06:27:54;;;;;;;9.82;4.75;;;;;;;12.14;86.84;101319.50;5070269;28;20437;-67
2022/05/25 06:30:19;;;;;;;11.48;6.15;;;;;;;12.19;85.94;101323.25;5070186;28;20022;-67
2022/05/25 06:32:44;;;;;;;12.60;5.75;;;;;;;12.19;86.03;101317.88;5069577;28;20490;-67
2022/05/25 06:35:10;;;;;;;13.60;5.82;;;;;;;12.20;87.80;101322.19;5050406;28;20116;-68
2022/05/25 06:37:35;;;;;;;12.95;5.72;;;;;;;12.28;87.06;101327.41;5033956;28;20043;-68
2022/05/25 06:40:01;;;;;;;14.30;6.07;;;;;;;12.33;86.57;101328.66;5070032;28;20135;-65
2022/05/25 06:42:26;;;;;;;10.10;5.03;;;;;;;12.36;86.34;101329.09;5051747;28;20023;-65
2022/05/25 06:44:52;;;;;;;10.07;6.53;;;;;;;12.43;85.81;101339.84;5069591;28;20071;-65
2022/05/25 06:47:18;;;;;;;12.48;4.78;;;;;;;12.56;87.67;101337.25;5069461;28;20033;-65
2022/05/25 06:49:45;;;;;;;12.75;6.38;;;;;;;12.73;85.97;101329.69;5069194;28;20135;-65
2022/05/25 06:52:12;;;;;;;13.57;5.03;;;;;;;12.82;86.82;101331.19;5069546;28;20032;-65
2022/05/25 06:54:38;;;;;;;14.77;6.07;;;;;;;12.85;85.94;101327.28;5069595;28;20035;-66
2022/05/25 06:57:03;;;;;;;13.82;5.45;;;;;;;12.88;85.65;101335.72;5069194;28;20856;-65
2022/05/25 06:59:29;;;;;;;11.77;5.90;;;;;;;12.94;84.29;101339.47;5069321;28;20525;-65
2022/05/25 07:01:54;;;;;;;11.88;5.75;;;;;;;12.90;84.31;101338.22;5069098;28;20107;-65
2022/05/25 07:04:19;;;;;;;9.43;5.32;;;;;;;12.93;84.48;101349.34;5069376;28;20036;-65
2022/05/25 07:06:45;;;;;;;13.13;6.53;;;;;;;12.98;83.58;101348.75;5069305;28;20028;-65
2022/05/25 07:09:12;;;;;;;10.68;6.70;;;;;;;13.04;83.48;101349.81;5051275;28;20537;-65
2022/05/25 07:11:38;;;;;;;14.85;6.95;;;;;;;13.11;84.12;101358.69;5069129;28;20391;-65
2022/05/25 07:14:05;;;;;;;16.58;8.27;;;;;;;13.18;82.61;101362.22;5068051;28;20032;-65
2022/05/25 07:16:31;;;;;;;11.82;6.50;;;;;;;13.25;83.16;101359.56;5069285;28;20028;-65
2022/05/25 07:18:57;;;;;;;16.63;7.88;;;;;;;13.47;83.42;101363.78;5069214;28;20025;-65
2022/05/25 07:21:25;;;;;;;17.17;10.05;;;;;;;13.67;81.74;101361.09;5069191;28;20074;-66
2022/05/25 07:23:52;;;;;;;17.85;9.95;;;;;;;13.72;79.48;101366.69;5069165;28;20032;-65
2022/05/25 07:26:18;;;;;;;16.23;8.88;;;;;;;13.73;79.48;101359.50;5069296;28;20115;-65
2022/05/25 07:28:44;;;;;;;19.45;10.15;;;;;;;13.80;79.71;101361.13;5069035;28;20530;-65
2022/05/25 07:31:15;;;;;;;17.27;10.35;;;;;;;13.92;81.26;101369.38;5068964;28;20028;-65
2022/05/25 07:33:44;;;;;;;14.10;9.38;;;;;;;14.05;80.95;101373.94;5050911;28;20033;-65
2022/05/25 07:36:11;;;;;;;15.35;8.77;;;;;;;14.20;79.64;101379.91;5068899;28;20028;-65
2022/05/25 07:38:41;;;;;;;14.60;8.20;;;;;;;14.29;78.42;101382.38;5068674;28;20399;-65
2022/05/25 07:41:08;;;;;;;16.65;9.52;;;;;;;14.32;78.02;101374.72;5068782;28;20479;-65
2022/05/25 07:43:34;;;;;;;16.25;8.10;;;;;;;14.24;77.03;101374.94;5068692;28;20052;-65
2022/05/25 07:45:59;;;;;;;19.25;9.55;;;;;;;14.15;78.44;101379.72;5049200;28;20040;-65
2022/05/25 07:48:25;;;;;;;20.48;9.15;;;;;;;14.18;78.86;101373.09;5049355;28;20029;-65
2022/05/25 07:50:50;;;;;;;14.65;7.50;;;;;;;14.33;78.99;101379.06;5066019;28;20056;-65
2022/05/25 07:56:03;;;;;;;11.30;7.55;;;;;;;14.59;77.33;101377.38;5049706;28;20098;-65
2022/05/25 07:58:32;;;;;;;16.60;8.27;;;;;;;14.76;79.45;101378.59;5049585;28;20124;-66
2022/05/25 08:01:02;;;;;;;12.38;7.38;;;;;;;15.06;77.55;101370.84;5049451;28;20043;-65
2022/05/25 08:06:12;;;;;;;13.93;6.53;;;;;;;15.95;72.41;101377.13;5049172;28;20503;-65
2022/05/25 08:08:38;;;;;;;11.02;6.13;;;;;;;17.56;67.90;101387.78;5048893;28;20029;-65
2022/05/25 08:11:11;;;;;;;11.82;6.07;;;;;;;19.55;61.49;101377.88;5048953;28;20025;-65
2022/05/25 08:13:41;;;;;;;9.88;6.05;;;;;;;21.45;56.22;101389.53;5048917;28;20025;-66
2022/05/25 08:16:06;;;;;;;9.00;5.75;;;;;;;22.85;50.02;101384.84;5048983;28;20505;-65
2022/05/25 08:18:32;;;;;;;12.65;5.95;;;;;;;23.87;46.31;101385.09;5049329;28;20107;-65
2022/05/25 08:20:57;;;;;;;7.25;5.15;;;;;;;24.89;43.99;101387.63;5049133;28;20033;-65
2022/05/25 08:23:23;;;;;;;9.30;5.03;;;;;;;25.58;42.32;101388.59;5049222;28;20032;-65
2022/05/25 08:25:48;;;;;;;11.50;6.22;;;;;;;25.26;42.30;101383.63;5050716;28;20056;-65
2022/05/25 08:28:14;;;;;;;13.65;6.55;;;;;;;24.77;43.13;101384.38;5052882;28;20047;-66
2022/05/25 08:30:41;;;;;;;12.77;5.28;;;;;;;25.42;41.84;101387.06;5052816;28;20033;-65
2022/05/25 08:33:07;;;;;;;10.05;6.22;;;;;;;25.69;41.55;101385.78;5053090;28;20025;-66
2022/05/25 08:35:32;;;;;;;8.52;4.78;;;;;;;26.16;40.08;101379.66;5053064;28;20144;-65
2022/05/25 08:37:58;;;;;;;6.70;4.72;;;;;;;26.46;38.22;101377.69;5053292;28;20037;-65
2022/05/25 08:40:27;;;;;;;6.45;3.65;;;;;;;26.87;38.48;101374.50;5053288;28;20033;-65
2022/05/25 08:43:18;;;;;;;5.78;3.60;;;;;;;27.34;43.44;101370.03;5052805;28;20056;-66
2022/05/25 08:45:49;;;;;;;7.97;3.88;;;;;;;27.20;37.54;101375.44;5053152;28;20041;-66
2022/05/25 08:48:16;;;;;;;8.70;3.72;;;;;;;26.45;38.64;101371.41;5052673;28;20052;-66
2022/05/25 08:50:44;;;;;;;7.45;4.05;;;;;;;25.09;39.88;101378.50;5052436;28;20049;-65
2022/05/25 08:53:12;;;;;;;7.57;5.32;;;;;;;24.78;40.48;101375.09;5052900;28;20032;-65
2022/05/25 08:56:11;;;;;;;7.07;3.90;;;;;;;23.93;44.43;101373.09;5052997;28;20025;-65
2022/05/25 08:58:45;;;;;;;6.57;4.05;;;;;;;22.36;46.19;101376.97;5052846;28;20028;-65
2022/05/25 09:01:14;;;;;;;13.05;4.82;;;;;;;20.82;48.18;101371.97;5052802;28;20028;-65
2022/05/25 09:04:05;;;;;;;6.28;3.92;;;;;;;19.68;51.73;101377.59;5052719;28;20025;-65
2022/05/25 09:06:39;;;;;;;12.95;4.63;;;;;;;18.97;53.41;101368.94;5052688;28;20048;-65
2022/05/25 09:09:12;;;;;;;7.10;3.40;;;;;;;18.48;57.77;101367.63;5052626;28;20531;-65
2022/05/25 09:11:50;;;;;;;9.60;3.50;;;;;;;18.26;56.17;101378.16;5052474;28;20029;-65
2022/05/25 09:14:26;;;;;;;7.30;3.38;;;;;;;18.02;57.49;101375.47;5052564;28;20087;-65
2022/05/25 09:16:54;;;;;;;4.20;3.17;;;;;;;18.03;56.84;101363.63;5052478;28;20036;-65
2022/05/25 09:19:34;;;;;;;6.00;3.72;;;;;;;18.13;58.04;101379.22;5052460;28;20388;-65
2022/05/25 09:22:07;;;;;;;7.93;4.30;;;;;;;18.03;57.46;101370.91;5052018;28;20106;-65
2022/05/25 09:24:34;;;;;;;3.85;3.20;;;;;;;18.03;57.25;101374.41;5052056;28;20082;-65
2022/05/25 09:27:01;;;;;;;4.78;2.75;;;;;;;18.06;57.69;101370.44;5051687;28;20475;-65
2022/05/25 09:29:27;;;;;;;5.55;3.08;;;;;;;17.78;56.63;101379.16;5052031;28;20029;-65
2022/05/25 09:31:58;;;;;;;7.50;3.10;;;;;;;17.53;56.96;101380.97;5052119;28;20362;-65
2022/05/25 09:35:00;;;;;;;5.88;3.88;;;;;;;17.79;58.21;101380.78;5052153;28;20025;-66
2022/05/25 09:37:44;;;;;;;7.50;3.10;;;;;;;18.01;57.62;101381.09;5033054;28;20045;-66
2022/05/25 09:40:34;;;;;;;4.82;2.70;;;;;;;17.79;56.88;101380.78;5052039;28;20104;-65
2022/05/25 09:43:03;;;;;;;6.55;2.13;;;;;;;17.97;59.08;101378.03;5051452;28;20464;-65
2022/05/25 09:45:50;;;;;;;3.47;2.50;;;;;;;18.12;55.64;101383.00;5052041;28;20051;-66
2022/05/25 09:48:22;;;;;;;4.25;2.00;;;;;;;17.76;54.61;101395.56;5011190;28;20037;-65
2022/05/25 09:51:04;;;;;;;2.97;1.95;;;;;;;17.41;56.10;101392.78;5051659;28;20072;-66
2022/05/25 09:53:39;;;;;;;10.70;3.03;;;;;;;17.02;57.57;101403.84;5051361;28;20036;-65
2022/05/25 09:56:29;;;;;;;7.25;2.45;;;;;;;16.67;57.34;101410.84;5051489;28;20463;-65
2022/05/25 09:58:59;;;;;;;2.45;2.15;;;;;;;16.65;56.28;101403.00;5051638;28;20518;-65
2022/05/25 10:01:30;;;;;;;4.03;2.20;;;;;;;16.82;57.17;101409.47;5051555;28;20029;-65
2022/05/25 10:03:55;;;;;;;2.50;2.30;;;;;;;16.98;57.81;101412.63;5051561;28;20028;-65
2022/05/25 10:06:49;;;;;;;3.63;2.35;;;;;;;17.24;55.65;101417.69;5051233;28;20043;-65
2022/05/25 10:09:20;;;;;;;3.20;2.40;;;;;;;17.53;54.50;101409.81;5051583;28;20100;-65
2022/05/25 10:11:53;;;;;;;4.13;2.15;;;;;;;17.55;53.80;101410.41;5051464;28;20471;-65
2022/05/25 10:14:35;;;;;;;4.20;1.90;;;;;;;17.43;53.99;101414.94;5051756;28;20037;-65
2022/05/25 10:17:29;;;;;;;3.93;1.97;;;;;;;17.38;54.29;101406.72;5051633;28;20120;-65
2022/05/25 10:19:56;;;;;;;2.67;1.90;;;;;;;17.14;53.54;101401.22;5051440;28;20431;-65
2022/05/25 10:22:41;;;;;;;3.15;1.77;;;;;;;17.40;53.74;101400.03;5051303;28;20044;-65
2022/05/25 10:25:24;;;;;;;5.07;2.20;;;;;;;17.59;54.33;101397.28;5050858;28;20067;-65
2022/05/25 10:27:49;;;;;;;2.90;2.22;;;;;;;17.51;53.10;101401.94;5051228;28;20102;-65
2022/05/25 10:38:51;;;;;;;9.23;2.30;;;;;;;17.88;53.14;101398.34;5051046;28;20098;-65
2022/05/25 10:41:39;;;;;;;3.80;1.50;;;;;;;17.64;52.91;101403.63;5051157;28;20029;-65
2022/05/25 10:44:11;;;;;;;4.57;2.83;;;;;;;17.46;52.82;101401.81;5050764;28;20056;-64
2022/05/25 10:46:39;;;;;;;5.20;1.35;;;;;;;17.50;53.29;101389.53;5050924;28;20782;-65
2022/05/25 10:49:33;;;;;;;5.22;1.60;;;;;;;17.82;53.15;101392.00;5050473;28;20056;-65
2022/05/25 10:52:11;;;;;;;2.47;1.48;;;;;;;18.26;53.96;101379.00;5050030;28;20040;-65
2022/05/25 10:54:51;;;;;;;5.28;2.15;;;;;;;18.45;50.58;101384.28;5050599;28;20088;-65
2022/05/25 10:57:56;;;;;;;1.98;1.67;;;;;;;18.67;52.24;101379.91;5050680;28;20024;-65
2022/05/25 11:00:44;;;;;;;4.40;2.67;;;;;;;18.80;51.67;101376.97;5050585;28;20040;-65
2022/05/25 11:03:31;;;;;;;3.30;1.27;;;;;;;19.00;50.71;101367.66;5050499;28;20028;-65
2022/05/25 11:06:36;;;;;;;3.63;1.67;;;;;;;19.19;49.22;101379.09;5050301;28;20139;-66
2022/05/25 11:09:34;;;;;;;3.58;1.65;;;;;;;18.80;48.81;101390.47;5049885;28;20048;-65
2022/05/25 11:12:41;;;;;;;3.72;1.65;;;;;;;19.09;49.90;101389.72;5049776;28;20040;-65
2022/05/25 11:15:30;;;;;;;2.30;1.85;;;;;;;19.39;49.00;101389.50;4968664;28;20621;-65
2022/05/25 11:18:21;;;;;;;1.20;0.80;;;;;;;19.52;48.77;101378.38;5055154;28;20040;-65
2022/05/25 11:20:52;;;;;;;8.70;3.00;;;;;;;19.63;46.00;101382.06;5069458;28;20074;-65
2022/05/25 11:23:43;;;;;;;2.97;1.13;;;;;;;19.60;47.07;101372.56;5050165;28;20370;-65
2022/05/25 11:26:30;;;;;;;8.55;2.42;;;;;;;19.68;48.18;101374.06;5049834;28;20039;-64
2022/05/25 11:29:14;;;;;;;3.33;1.10;;;;;;;19.76;49.15;101373.66;5050071;28;20029;-64
2022/05/25 11:31:54;;;;;;;8.68;2.38;;;;;;;19.89;49.26;101377.94;5053796;28;20040;-63
2022/05/25 11:34:49;;;;;;;4.03;1.10;;;;;;;20.04;47.78;101367.34;5055320;28;20036;-63
2022/05/25 11:37:30;;;;;;;5.13;1.60;;;;;;;20.07;45.86;101361.44;5049520;28;20025;-65
2022/05/25 11:40:07;;;;;;;4.97;1.10;;;;;;;20.04;47.36;101351.09;5049237;28;20480;-64
2022/05/25 11:42:54;;;;;;;2.80;1.50;;;;;;;20.02;46.99;101361.38;5049697;28;20383;-64
2022/05/25 11:45:28;;;;;;;7.00;1.20;;;;;;;19.99;45.35;101361.88;5049703;28;20032;-64
2022/05/25 11:47:59;;;;;;;1.17;0.93;;;;;;;19.92;44.21;101358.50;5049511;28;20479;-64
2022/05/25 11:50:42;;;;;;;2.03;1.02;;;;;;;19.96;44.83;101359.63;5049445;28;20124;-64
2022/05/25 11:53:50;;;;;;;4.30;1.33;;;;;;;19.71;43.95;101357.34;5049375;28;20029;-64
2022/05/25 11:57:03;;;;;;;12.90;2.63;;;;;;;19.52;44.92;101353.16;5049496;28;20047;-64
2022/05/25 11:59:31;;;;;;;;;;;;;;;19.56;47.13;101346.22;4968072;28;20486;-64
2022/05/25 12:01:59;;;;;;;1.73;0.93;;;;;;;19.49;44.60;101354.47;5032804;28;19991;-64
2022/05/25 12:04:43;;;;;;;4.85;1.38;;;;;;;19.29;44.35;101360.38;5049673;28;20057;-64
2022/05/25 12:07:27;;;;;;;6.28;2.22;;;;;;;19.15;47.74;101359.00;5031652;28;20025;-64
2022/05/25 12:10:17;;;;;;;2.88;1.60;;;;;;;19.19;46.61;101362.88;5049470;28;20031;-64
2022/05/25 12:13:09;;;;;;;5.25;1.88;;;;;;;19.09;47.20;101358.09;5049277;28;20025;-64